createdAt,value
2024-04-21T00:01:29.260Z,2.23
2024-04-21T00:06:52.054Z,1.90
2024-04-21T00:12:13.980Z,2.33
2024-04-21T00:17:36.344Z,2.30
2024-04-21T00:22:58.262Z,2.40
2024-04-21T00:28:20.189Z,0.90
2024-04-21T00:33:42.450Z,1.03
2024-04-21T00:39:04.422Z,2.13
2024-04-21T00:44:26.383Z,1.10
2024-04-21T00:49:48.569Z,2.10
2024-04-21T00:55:11.483Z,2.40
2024-04-21T01:00:33.570Z,1.30
2024-04-21T01:05:55.545Z,1.43
2024-04-21T01:11:21.256Z,0.83
2024-04-21T01:16:43.255Z,1.00
2024-04-21T01:22:05.227Z,1.50
2024-04-21T01:27:27.141Z,0.80
2024-04-21T01:32:49.170Z,1.23
2024-04-21T01:38:11.136Z,0.70
2024-04-21T01:43:33.023Z,1.10
2024-04-21T01:48:55.241Z,2.33
2024-04-21T01:54:17.148Z,2.33
2024-04-21T01:59:39.078Z,0.77
2024-04-21T02:05:01.013Z,1.87
2024-04-21T02:10:23.111Z,0.70
2024-04-21T02:15:50.404Z,2.80
2024-04-21T02:21:12.323Z,0.93
2024-04-21T02:26:34.240Z,0.87
2024-04-21T02:31:56.130Z,1.07
2024-04-21T02:37:18.750Z,4.30
2024-04-21T02:42:40.773Z,1.60
2024-04-21T02:48:03.194Z,2.67
2024-04-21T02:53:25.082Z,3.13
2024-04-21T02:58:47.048Z,4.20
2024-04-21T03:04:09.013Z,4.47
2024-04-21T03:09:30.944Z,3.23
2024-04-21T03:14:52.987Z,8.40
2024-04-21T03:20:14.960Z,7.17
2024-04-21T03:25:36.962Z,4.00
2024-04-21T03:31:00.860Z,3.63
2024-04-21T03:36:22.820Z,3.33
2024-04-21T03:41:45.628Z,2.40
2024-04-21T03:47:07.637Z,3.13
2024-04-21T03:52:30.042Z,6.17
2024-04-21T03:57:51.969Z,3.73
2024-04-21T04:03:14.004Z,3.10
2024-04-21T04:08:36.027Z,2.07
2024-04-21T04:13:57.889Z,2.67
2024-04-21T04:19:19.875Z,2.53
2024-04-21T04:24:41.773Z,2.57
2024-04-21T04:30:04.184Z,2.93
2024-04-21T04:35:26.046Z,3.13
2024-04-21T04:40:47.948Z,3.03
2024-04-21T04:46:10.110Z,2.47
2024-04-21T04:51:32.090Z,2.00
2024-04-21T04:56:54.641Z,2.50
2024-04-21T05:02:16.564Z,3.87
2024-04-21T05:07:38.475Z,5.47
2024-04-21T05:13:00.410Z,7.03
2024-04-21T05:18:22.523Z,6.50
2024-04-21T05:23:44.452Z,3.83
2024-04-21T05:29:06.401Z,6.83
2024-04-21T05:34:29.641Z,5.37
2024-04-21T05:39:52.212Z,4.70
2024-04-21T05:45:14.402Z,9.67
2024-04-21T05:50:36.429Z,3.37
2024-04-21T05:55:58.368Z,8.17
2024-04-21T06:01:20.664Z,8.00
2024-04-21T06:06:42.698Z,5.93
2024-04-21T06:12:04.835Z,5.37
2024-04-21T06:17:26.752Z,6.90
2024-04-21T06:22:48.665Z,6.07
2024-04-21T06:28:10.838Z,6.57
2024-04-21T06:33:32.728Z,12.53
2024-04-21T06:38:54.659Z,4.43
2024-04-21T06:44:17.061Z,9.00
2024-04-21T06:49:39.827Z,7.30
2024-04-21T06:55:01.914Z,5.73
2024-04-21T07:00:23.915Z,11.80
2024-04-21T07:05:47.319Z,15.20
2024-04-21T07:11:09.338Z,9.53
2024-04-21T07:16:31.272Z,11.70
2024-04-21T07:21:58.766Z,10.00
2024-04-21T07:27:20.827Z,10.77
2024-04-21T07:32:42.829Z,8.80
2024-04-21T07:38:06.529Z,9.50
2024-04-21T07:43:28.710Z,10.83
2024-04-21T07:48:50.674Z,10.43
2024-04-21T07:54:12.576Z,8.60
2024-04-21T07:59:34.478Z,7.33
2024-04-21T08:04:56.485Z,8.13
2024-04-21T08:10:19.319Z,7.43
2024-04-21T08:15:41.329Z,7.57
2024-04-21T08:21:03.492Z,7.07
2024-04-21T08:26:25.365Z,7.20
2024-04-21T08:31:47.317Z,7.27
2024-04-21T08:37:11.202Z,7.10
2024-04-21T08:42:39.903Z,9.13
2024-04-21T08:48:02.092Z,11.80
2024-04-21T08:53:24.606Z,6.73
2024-04-21T08:58:49.414Z,7.63
2024-04-21T09:04:11.999Z,4.87
2024-04-21T09:09:33.982Z,3.90
2024-04-21T09:14:56.155Z,5.37
2024-04-21T09:20:18.323Z,5.35
2024-04-21T09:25:40.271Z,6.50
2024-04-21T09:31:02.199Z,4.63
2024-04-21T09:36:24.814Z,9.30
2024-04-21T09:41:52.190Z,7.00
2024-04-21T09:47:17.012Z,4.97
2024-04-21T09:52:39.817Z,7.27
2024-04-21T09:58:02.678Z,4.30
2024-04-21T10:03:25.096Z,4.35
2024-04-21T10:08:49.113Z,6.25
2024-04-21T10:14:11.862Z,7.43
2024-04-21T10:24:56.556Z,5.63
2024-04-21T10:30:19.382Z,6.25
2024-04-21T10:35:42.886Z,3.40
2024-04-21T10:41:07.703Z,3.22
2024-04-21T10:46:30.283Z,3.17
2024-04-21T10:51:53.459Z,4.47
2024-04-21T10:57:15.798Z,5.60
2024-04-21T11:02:37.739Z,3.40
2024-04-21T11:08:02.498Z,3.90
2024-04-21T11:13:24.813Z,3.20
2024-04-21T11:18:46.939Z,7.68
2024-04-21T11:24:09.146Z,12.82
2024-04-21T11:29:33.087Z,3.60
2024-04-21T11:34:55.051Z,3.15
2024-04-21T11:40:17.239Z,2.15
2024-04-21T11:45:39.835Z,5.10
2024-04-21T11:51:02.692Z,9.43
2024-04-21T11:56:24.663Z,7.93
2024-04-21T12:01:50.209Z,4.20
2024-04-21T12:07:12.844Z,3.25
2024-04-21T12:12:34.830Z,4.50
2024-04-21T12:18:06.861Z,3.63
2024-04-21T12:23:28.847Z,5.78
2024-04-21T12:28:50.789Z,5.50
2024-04-21T12:34:12.714Z,5.67
2024-04-21T12:39:36.684Z,6.90
2024-04-21T12:44:58.664Z,7.30
2024-04-21T12:50:20.749Z,8.27
2024-04-21T12:55:42.813Z,2.97
2024-04-21T13:01:05.039Z,3.38
2024-04-21T13:06:28.980Z,4.72
2024-04-21T13:11:51.996Z,3.95
2024-04-21T13:17:14.187Z,4.10
2024-04-21T13:22:36.216Z,4.85
2024-04-21T13:27:58.194Z,4.05
2024-04-21T13:33:20.403Z,3.28
2024-04-21T13:38:42.378Z,2.33
2024-04-21T13:44:04.623Z,4.18
2024-04-21T13:49:26.551Z,3.17
2024-04-21T13:54:48.486Z,2.10
2024-04-21T14:00:11.757Z,3.85
2024-04-21T14:05:33.685Z,2.78
2024-04-21T14:10:55.802Z,4.30
2024-04-21T14:16:17.909Z,3.95
2024-04-21T14:21:40.179Z,1.75
2024-04-21T14:27:02.103Z,1.05
2024-04-21T14:32:26.504Z,1.00
2024-04-21T14:37:48.700Z,1.60
2024-04-21T14:43:13.957Z,0.70
2024-04-21T14:48:35.944Z,0.68
2024-04-21T14:53:57.823Z,1.25
2024-04-21T14:59:19.775Z,1.35
2024-04-21T15:04:44.743Z,3.88
2024-04-21T15:10:07.227Z,2.15
2024-04-21T15:15:29.320Z,0.70
2024-04-21T15:20:51.339Z,2.58
2024-04-21T15:26:14.055Z,2.17
2024-04-21T15:31:36.062Z,1.85
2024-04-21T15:36:58.037Z,1.02
2024-04-21T15:42:20.048Z,0.93
2024-04-21T15:47:45.625Z,1.00
2024-04-21T15:53:07.781Z,0.90
2024-04-21T15:58:29.728Z,0.98
2024-04-21T16:03:52.057Z,0.65
2024-04-21T16:09:14.079Z,0.68
2024-04-21T16:14:36.007Z,0.67
2024-04-21T16:19:57.906Z,0.70
2024-04-21T16:25:19.832Z,1.00
2024-04-21T16:30:41.758Z,1.30
2024-04-21T16:36:06.803Z,2.20
2024-04-21T16:41:29.016Z,1.10
2024-04-21T16:46:56.400Z,1.20
2024-04-21T16:52:18.711Z,1.23
2024-04-21T16:57:53.138Z,2.07
2024-04-21T17:03:15.504Z,1.50
2024-04-21T17:08:37.699Z,1.57
2024-04-21T17:13:59.592Z,1.33
2024-04-21T17:19:24.954Z,1.40
2024-04-21T17:24:47.541Z,1.30
2024-04-21T17:30:10.007Z,2.00
2024-04-21T17:35:31.911Z,2.37
2024-04-21T17:40:53.921Z,2.67
2024-04-21T17:46:15.872Z,2.40
2024-04-21T17:51:37.773Z,2.20
2024-04-21T17:56:59.731Z,2.70
2024-04-21T18:02:21.634Z,2.60
2024-04-21T18:07:44.838Z,2.63
2024-04-21T18:13:06.827Z,2.30
2024-04-21T18:18:29.495Z,2.43
2024-04-21T18:23:51.847Z,2.67
2024-04-21T18:29:14.144Z,2.20
2024-04-21T18:34:36.325Z,2.80
2024-04-21T18:39:58.613Z,2.70
2024-04-21T18:45:20.502Z,2.77
2024-04-21T18:50:46.337Z,3.60
2024-04-21T18:56:08.623Z,3.20
2024-04-21T19:01:30.579Z,3.20
2024-04-21T19:06:52.890Z,3.10
2024-04-21T19:12:15.472Z,4.53
2024-04-21T19:17:38.331Z,6.40
2024-04-21T19:23:00.637Z,4.80
2024-04-21T19:28:23.389Z,5.77
2024-04-21T19:33:49.081Z,5.03
2024-04-21T19:39:11.459Z,3.50
2024-04-21T19:44:34.444Z,4.63
2024-04-21T19:49:56.516Z,3.77
2024-04-21T19:55:18.951Z,5.23
2024-04-21T20:00:41.093Z,4.50
2024-04-21T20:06:05.097Z,7.07
2024-04-21T20:11:27.218Z,5.20
2024-04-21T20:17:09.942Z,5.60
2024-04-21T20:22:31.945Z,6.40
2024-04-21T20:27:54.823Z,4.63
2024-04-21T20:33:16.788Z,5.60
2024-04-21T20:38:38.829Z,7.10
2024-04-21T20:44:00.747Z,5.80
2024-04-21T20:49:22.702Z,5.70
2024-04-21T20:54:44.581Z,5.43
2024-04-21T21:00:07.853Z,5.40
2024-04-21T21:05:29.828Z,5.80
2024-04-21T21:10:51.881Z,5.73
2024-04-21T21:16:13.859Z,5.67
2024-04-21T21:21:35.756Z,6.30
2024-04-21T21:26:57.678Z,5.87
2024-04-21T21:32:19.578Z,6.97
2024-04-21T21:37:41.605Z,5.37
2024-04-21T21:43:03.702Z,4.73
2024-04-21T21:48:25.724Z,5.23
2024-04-21T21:53:47.639Z,4.93
2024-04-21T21:59:09.614Z,7.60
2024-04-21T22:04:31.882Z,5.97
2024-04-21T22:09:53.857Z,6.73
2024-04-21T22:15:16.116Z,5.10
2024-04-21T22:20:38.085Z,4.60
2024-04-21T22:26:01.294Z,4.50
2024-04-21T22:31:23.657Z,6.07
2024-04-21T22:36:45.737Z,5.07
2024-04-21T22:42:07.938Z,4.17
2024-04-21T22:47:30.411Z,5.43
2024-04-21T22:52:52.332Z,5.93
2024-04-21T22:58:14.338Z,5.10
2024-04-21T23:03:37.263Z,4.13
2024-04-21T23:08:59.354Z,6.23
2024-04-21T23:14:21.243Z,4.57
2024-04-21T23:19:43.209Z,4.40
2024-04-21T23:25:05.597Z,4.93
2024-04-21T23:30:27.561Z,4.90
2024-04-21T23:35:49.557Z,5.27
2024-04-21T23:41:11.630Z,5.57
2024-04-21T23:46:33.638Z,5.63
2024-04-21T23:51:55.628Z,5.63
2024-04-21T23:57:17.523Z,5.57
